Усть-Cреднекан

СКИДКИ НА СМАРТФОНЫ!

Карта отелей и гостиниц, располагающихся рядом с аэропортом Усть-Cреднекан :

Усть-Cреднекан Магаданская область 62° 25' 52.2588" N, 152° 21' 8.6292" E
Код аэродрома ИКАО
ZCP6
Код аэродрома RU
ЗЦП6
Координаты
N62.43118° E152.35240°
Превышение над уровнем моря
263
Основная полоса
15/33
Курс магнитный
151/331
Длина основной ВПП
700
Ширина основной ВПП
60
Покрытие основной ВПП
Нетвёрдое (гравий)
Освещение ВПП
Нет
Тип: 
Аэродром
Класс аэродрома: 
Принадлежность: 
ГА
Статус: 
Недействующий
Сайт: 
E-mail аэродрома: 
Страна: 
Россия
Регион: 
Магаданская область
Город: 
Дополнительная информация: 
Бывший аэродром МВЛ-2. ГВПП сильно заросла, для посадки легких самолетов не пригоден.

Скидки на навигаторы!

Найти трансфер

С помощью этой формы Вы можете найти трансфер из аэропорта Усть-Cреднекан в город, аэропорт или вокзал:

Погода в аэропортах:

Авиационная погода в Пскове

Регион: 
Погода METAR: 
ULOO 190100Z 00000MPS 3300 R19/P2000D BR NSC 16/16 Q1019 NOSIG RMK QFE760
Время наблюдения
2022-08-19T01:00:00Z
Температура C
16.0
Точка росы
16.0
Направление ветра
0
Скорость ветра (узлы)
0
Метео видимость
2.05
Облачность
CLR
Нижняя граница облачности (футы)
Явления погоды
BR
Условия полета
IFR
CLR — нет облаков ниже 3000 м
BR – дымка (видимость от 1 до 9 км);

Авиационная погода в аэропорту Новый

Регион: 
Погода METAR: 
UHHH 190100Z 22003MPS 160V250 9000 -SHRA SCT003 SCT017CB 20/20 Q0997 R23R/290045 NOSIG RMK QBB100 QFE742/0989
Время наблюдения
2022-08-19T01:00:00Z
Температура C
20.0
Точка росы
20.0
Направление ветра
220
Скорость ветра (узлы)
6
Метео видимость
5.59
Облачность
SCT
SCT
Нижняя граница облачности (футы)
300
1700
Явления погоды
-SHRA
Условия полета
VFR
Аэропорт подробнее: 
SCT – разбросанная отдельная облачность;
-SHRA - слабый ливневой дождь;

Авиационная погода в Усть-Каменогорске

Регион: 
Погода METAR: 
UASK 190255Z 25002MPS 220V330 2100 BR BCFG SCT004 10/07 Q1015 TEMPO 0200 FG BKN002 RMK QBB120 QFE736/0981
Время наблюдения
2022-08-19T02:55:00Z
Температура C
10.0
Точка росы
7.0
Направление ветра
250
Скорость ветра (узлы)
4
Метео видимость
1.3
Облачность
SCT
Нижняя граница облачности (футы)
400
Явления погоды
BR BCFG
Условия полета
IFR
Аэропорт подробнее: 
SCT – разбросанная отдельная облачность;
FG – туман (небо не видно, температура воздуха выше нуля или ноль); BR – дымка (видимость от 1 до 9 км);

Авиационная погода в Братске

Регион: 
Погода METAR: 
UIBB 190100Z 23005MPS 200V260 9999 -SHRA BKN006 OVC020CB 09/09 Q1004 R30/60D NOSIG RMK QBB200 MT OBSC QFE711/0948
Время наблюдения
2022-08-19T01:00:00Z
Температура C
9.0
Точка росы
9.0
Направление ветра
230
Скорость ветра (узлы)
10
Метео видимость
6.21
Облачность
BKN
OVC
Нижняя граница облачности (футы)
600
2000
Явления погоды
-SHRA
Условия полета
IFR
Аэропорт подробнее: 
BKN – значительная (рассеянная, разорванная) облачность; OVC – сплошная облачность;
-SHRA - слабый ливневой дождь;